Etusivu
METAR-TAF:

METAR-TAF

Lentoasemat :

Wittering, Englanti

Leveyspiiri: 52-37N, Pituuspiiri: 000-28W, korkeus merenpinnasta: 84 m

Tämänhetkinen sää

Tämä raportti tehtiin 40 minuuttia sitten, kello 15.50 UTC
Tuuli 7 kn pohjoisesta
Lämpötila 16°C
Kosteus 77%
Ilmanpaine 1011 hPa
Näkyvyys 10 km tai enemmän

METAR: EGXT 021550Z AUTO 01007KT 9999 FEW019/// BKN023/// 16/12 Q1011

Aika: 17:30 (16:30 UTC)

Sääennuste

Tämä raportti tehtiin 2 tuntia ja 20 minuuttia sitten, kello 14.10 UTC
Ennuste voimassa 02. päivästä klo 15 UTC - 02. päivään klo 18 UTC
Tuuli 10 kn pohjoisesta
Näkyvyys 10 km tai enemmän
Muutamia pilviä 1500 ft:n korkeudessa
Hajonneita pilviä 2500 ft:n korkeudessa
Ajoittain
02. päivästä klo 15 UTC - 02. päivään klo 18 UTC
Hajanaisia pilviä 2000 ft:n korkeudessa

TAF: EGXT 021410Z 0215/0218 35010KT 9999 FEW015 BKN025 TEMPO 0215/0218 SCT020

Säähavainnot ja -ennusteet yli 4000 lentoasemalta (METAR- ja TAF-raportit).

Käytössä olevat sääasemat on merkitty karttaan keltaisilla ja punaisilla pisteillä.

Aseta hiiri pisteen päälle nähdäksesi sääaseman nimen.

Klikkaa sitten nähdäksesi säähavainnot ja -ennusteet.

Kartan vaihtaminen: klikkaa mustalla rastilla varustettuja vihreitä pisteitä, niin voit zoomata sisään; viivalla varustettua vihreää pistettä, niin voit zoomata ulos tai vihreitä nuolia, niin pääset viereisille kartoille.


METAR-TAF: